Bearsden, United Kingdom
Current Conditions -  °F | °C
As of 8:50 AM on Sunday 26 Oct 2014 (Local Time) from EGPF Reporting Station
Light Rain Light Rain  
Wind Chill: 12°   Ceiling: 3800
Heat Index: 12°   Visibility: 6mi
Dew Point:   Wind: 25mph
Humidity: 82%   Direction: 220°SW
Pressure: 29.65"   Gusts: NA
Location:  55.92°N, 4.33°W
Report Text: EGPF 260750Z AUTO 22022KT 9000 -RA SCT017/// SCT023/// BKN038/// //////TCU 12/09 Q1004
Loading
Personal Weather Stations






























Interactive Weather Map
Tropical Storm Tracking
New forecast layout! Learn more

10-Day Weather Forecast

Advertisements
Track Severe Weather on mobile